createdAt,value
2019-04-22T00:02:20.556Z,23.05
2019-04-22T00:05:01.092Z,19.60
2019-04-22T00:07:38.888Z,17.98
2019-04-22T00:10:14.095Z,18.23
2019-04-22T00:12:42.380Z,21.40
2019-04-22T00:15:08.493Z,20.23
2019-04-22T00:17:38.688Z,22.23
2019-04-22T00:20:04.937Z,24.27
2019-04-22T00:22:32.102Z,22.27
2019-04-22T00:25:03.292Z,21.23
2019-04-22T00:27:39.153Z,21.55
2019-04-22T00:30:07.252Z,22.83
2019-04-22T00:32:36.591Z,23.55
2019-04-22T00:35:07.129Z,23.80
2019-04-22T00:37:36.272Z,24.02
2019-04-22T00:39:57.350Z,22.70
2019-04-22T00:42:34.727Z,24.10
2019-04-22T00:45:00.744Z,23.05
2019-04-22T00:47:30.507Z,22.40
2019-04-22T00:52:22.366Z,21.42
2019-04-22T00:54:56.198Z,29.17
2019-04-22T00:57:26.310Z,23.20
2019-04-22T00:59:50.310Z,21.95
2019-04-22T01:02:22.961Z,22.83
2019-04-22T01:04:48.410Z,25.23
2019-04-22T01:07:13.072Z,25.55
2019-04-22T01:09:44.681Z,24.40
2019-04-22T01:12:07.246Z,26.55
2019-04-22T01:14:34.297Z,27.42
2019-04-22T01:17:19.616Z,27.30
2019-04-22T01:19:43.866Z,26.42
2019-04-22T01:21:57.736Z,32.03
2019-04-22T01:24:27.341Z,28.77
2019-04-22T01:26:49.281Z,27.98
2019-04-22T01:29:14.938Z,26.52
2019-04-22T01:31:34.369Z,26.12
2019-04-22T01:34:10.021Z,26.67
2019-04-22T01:36:51.205Z,29.48
2019-04-22T01:39:31.884Z,30.02
2019-04-22T01:41:55.224Z,28.48
2019-04-22T01:44:33.415Z,28.80
2019-04-22T01:46:47.671Z,34.08
2019-04-22T01:49:19.294Z,29.40
2019-04-22T01:51:52.894Z,30.23
2019-04-22T01:54:12.276Z,30.05
2019-04-22T01:56:42.304Z,30.05
2019-04-22T01:58:58.950Z,31.98
2019-04-22T02:01:48.418Z,30.40
2019-04-22T02:04:17.605Z,31.62
2019-04-22T02:06:45.678Z,31.98
2019-04-22T02:11:40.374Z,31.02
2019-04-22T02:14:04.388Z,34.40
2019-04-22T02:16:34.267Z,29.87
2019-04-22T02:19:00.873Z,33.20
2019-04-22T02:21:30.189Z,37.63
2019-04-22T02:23:56.537Z,32.28
2019-04-22T02:26:31.586Z,34.05
2019-04-22T02:29:09.168Z,33.22
2019-04-22T02:31:42.246Z,33.05
2019-04-22T02:38:59.829Z,36.45
2019-04-22T02:51:17.146Z,37.28
2019-04-22T03:01:20.800Z,38.67
2019-04-22T03:08:41.478Z,33.80
2019-04-22T03:18:29.397Z,41.00
2019-04-22T03:20:58.316Z,39.58
2019-04-22T03:23:35.990Z,37.65
2019-04-22T03:28:23.276Z,42.28
2019-04-22T03:35:45.149Z,39.42
2019-04-22T03:45:30.174Z,40.50
2019-04-22T03:53:07.870Z,41.40
2019-04-22T03:55:32.656Z,38.72
2019-04-22T04:05:34.014Z,43.40
2019-04-22T04:08:03.645Z,40.67
2019-04-22T04:11:38.170Z,42.03
2019-04-22T04:12:51.129Z,41.20
2019-04-22T04:17:45.878Z,42.33
2019-04-22T04:20:21.403Z,41.03
2019-04-22T04:30:21.564Z,44.45
2019-04-22T04:32:51.334Z,42.28
2019-04-22T04:37:40.912Z,41.25
2019-04-22T04:42:33.130Z,40.88
2019-04-22T04:47:39.239Z,39.38
2019-04-22T04:49:54.563Z,39.67
2019-04-22T04:52:27.585Z,38.70
2019-04-22T04:54:47.818Z,44.72
2019-04-22T05:02:20.448Z,41.05
2019-04-22T05:05:00.136Z,38.90
2019-04-22T05:09:40.782Z,41.85
2019-04-22T05:14:28.602Z,37.53
2019-04-22T05:17:02.318Z,43.42
2019-04-22T05:19:36.247Z,38.20
2019-04-22T05:21:58.046Z,38.33
2019-04-22T05:24:31.402Z,41.03
2019-04-22T05:27:13.337Z,39.65
2019-04-22T05:29:17.001Z,38.03
2019-04-22T05:31:54.248Z,37.70
2019-04-22T05:34:14.418Z,41.58
2019-04-22T05:36:40.264Z,39.00
2019-04-22T05:39:13.890Z,41.42
2019-04-22T05:44:08.320Z,40.67
2019-04-22T05:46:34.504Z,38.17
2019-04-22T05:49:08.180Z,38.05
2019-04-22T05:51:31.473Z,38.80
2019-04-22T05:54:02.806Z,39.15
2019-04-22T05:56:34.261Z,39.40
2019-04-22T05:58:58.822Z,39.75
2019-04-22T06:03:59.213Z,40.67
2019-04-22T06:06:22.464Z,37.88
2019-04-22T06:08:45.586Z,39.40
2019-04-22T06:11:22.925Z,37.85
2019-04-22T06:13:33.069Z,40.50
2019-04-22T06:16:09.205Z,38.33
2019-04-22T06:18:39.646Z,36.67
2019-04-22T06:23:44.326Z,40.45
2019-04-22T06:26:14.436Z,41.92
2019-04-22T06:28:48.738Z,39.22
2019-04-22T06:31:02.467Z,36.17
2019-04-22T06:33:33.939Z,38.88
2019-04-22T06:35:56.278Z,38.55
2019-04-22T06:40:58.412Z,37.83
2019-04-22T06:43:22.176Z,36.33
2019-04-22T06:45:44.942Z,37.75
2019-04-22T06:48:19.654Z,38.05
2019-04-22T06:50:50.692Z,36.63
2019-04-22T06:53:32.733Z,37.25
2019-04-22T06:55:43.975Z,38.42
2019-04-22T06:58:10.675Z,40.15
2019-04-22T07:00:36.601Z,35.15
2019-04-22T07:03:34.683Z,36.17
2019-04-22T07:05:32.591Z,37.78
2019-04-22T07:08:05.533Z,36.55
2019-04-22T07:10:35.379Z,36.38
2019-04-22T07:12:54.273Z,36.65
2019-04-22T07:15:42.408Z,34.47
2019-04-22T07:17:56.823Z,35.75
2019-04-22T07:20:24.137Z,36.00
2019-04-22T07:22:51.331Z,34.13
2019-04-22T07:25:17.316Z,33.75
2019-04-22T07:27:50.586Z,35.03
2019-04-22T07:33:04.248Z,32.08
2019-04-22T07:35:15.141Z,31.67
2019-04-22T07:40:11.939Z,33.92
2019-04-22T07:42:36.557Z,33.08
2019-04-22T07:45:04.957Z,35.30
2019-04-22T07:47:40.945Z,32.33
2019-04-22T07:52:31.766Z,29.75
2019-04-22T07:54:59.613Z,31.30
2019-04-22T07:57:28.320Z,30.15
2019-04-22T07:59:57.545Z,29.65
2019-04-22T08:02:26.095Z,28.30
2019-04-22T08:05:03.031Z,28.25
2019-04-22T08:07:17.466Z,30.27
2019-04-22T08:09:51.011Z,26.80
2019-04-22T08:12:14.610Z,27.40
2019-04-22T08:14:40.894Z,26.40
2019-04-22T08:17:36.174Z,29.65
2019-04-22T08:19:57.842Z,27.60
2019-04-22T08:22:01.450Z,32.92
2019-04-22T08:24:40.404Z,35.45
2019-04-22T08:27:04.422Z,32.65
2019-04-22T08:29:38.094Z,33.90
2019-04-22T08:32:01.202Z,32.13
2019-04-22T08:34:25.968Z,30.17
2019-04-22T08:37:25.285Z,30.83
2019-04-22T08:39:29.320Z,30.20
2019-04-22T08:41:51.225Z,29.48
2019-04-22T08:44:49.668Z,29.17
2019-04-22T08:46:48.589Z,30.27
2019-04-22T08:49:10.193Z,29.55
2019-04-22T08:51:42.504Z,32.13
2019-04-22T08:56:37.717Z,26.67
2019-04-22T08:59:12.185Z,28.60
2019-04-22T09:01:35.926Z,28.40
2019-04-22T09:06:49.488Z,27.80
2019-04-22T09:11:35.907Z,26.23
2019-04-22T09:16:33.180Z,25.30
2019-04-22T09:18:56.016Z,24.98
2019-04-22T09:21:27.667Z,25.05
2019-04-22T09:23:56.926Z,26.52
2019-04-22T09:26:23.954Z,23.58
2019-04-22T09:28:50.973Z,24.33
2019-04-22T09:31:11.639Z,24.58
2019-04-22T09:33:43.321Z,23.27
2019-04-22T09:36:17.990Z,25.20
2019-04-22T09:41:06.534Z,23.40
2019-04-22T09:43:42.802Z,22.13
2019-04-22T09:46:08.684Z,24.20
2019-04-22T09:48:39.033Z,23.85
2019-04-22T09:51:00.344Z,24.50
2019-04-22T09:53:29.762Z,23.48
2019-04-22T09:55:57.015Z,25.33
2019-04-22T09:58:23.587Z,22.75
2019-04-22T10:01:18.695Z,24.87
2019-04-22T10:03:42.499Z,26.20
2019-04-22T10:06:16.480Z,21.98
2019-04-22T10:08:42.200Z,24.80
2019-04-22T10:11:04.649Z,24.65
2019-04-22T10:13:36.026Z,21.40
2019-04-22T10:16:02.978Z,21.15
2019-04-22T10:18:25.874Z,22.67
2019-04-22T10:21:02.113Z,20.62
2019-04-22T10:23:25.427Z,20.98
2019-04-22T10:25:52.566Z,21.05
2019-04-22T10:28:23.602Z,21.55
2019-04-22T10:30:47.240Z,21.25
2019-04-22T10:33:15.018Z,19.75
2019-04-22T10:35:24.140Z,18.42
2019-04-22T10:37:48.430Z,19.10
2019-04-22T10:40:47.637Z,20.67
2019-04-22T10:43:16.961Z,17.02
2019-04-22T10:45:44.038Z,16.20
2019-04-22T10:48:12.423Z,18.35
2019-04-22T10:50:41.258Z,17.35
2019-04-22T10:53:09.421Z,17.92
2019-04-22T10:55:40.454Z,17.20
2019-04-22T10:58:06.726Z,16.25
2019-04-22T11:00:33.968Z,18.45
2019-04-22T11:03:02.426Z,17.90
2019-04-22T11:05:30.399Z,20.10
2019-04-22T11:08:04.235Z,16.08
2019-04-22T11:10:38.808Z,17.35
2019-04-22T11:12:54.809Z,16.87
2019-04-22T11:15:22.687Z,16.85
2019-04-22T11:17:51.427Z,19.98
2019-04-22T11:20:19.877Z,20.48
2019-04-22T11:22:46.897Z,16.73
2019-04-22T11:25:16.031Z,17.80
2019-04-22T11:27:44.375Z,17.15
2019-04-22T11:30:11.617Z,19.15
2019-04-22T11:32:40.406Z,14.98
2019-04-22T11:35:09.892Z,15.90
2019-04-22T11:37:36.871Z,16.52
2019-04-22T11:40:15.834Z,13.48
2019-04-22T11:42:34.327Z,13.68
2019-04-22T11:45:01.659Z,14.25
2019-04-22T11:47:29.703Z,12.93
2019-04-22T11:49:57.751Z,12.30
2019-04-22T11:52:26.766Z,12.20
2019-04-22T11:54:54.755Z,12.57
2019-04-22T11:57:21.244Z,14.10
2019-04-22T11:59:49.380Z,12.98
2019-04-22T12:02:18.111Z,11.60
2019-04-22T12:04:45.604Z,12.80
2019-04-22T12:07:15.038Z,11.95
2019-04-22T12:09:43.615Z,11.43
2019-04-22T12:12:11.829Z,11.57
2019-04-22T12:14:38.347Z,9.30
2019-04-22T12:17:07.667Z,12.13
2019-04-22T12:19:35.269Z,9.07
2019-04-22T12:22:02.977Z,12.68
2019-04-22T12:24:32.035Z,9.52
2019-04-22T12:27:00.297Z,10.13
2019-04-22T12:29:29.027Z,9.13
2019-04-22T12:31:57.735Z,9.20
2019-04-22T12:34:25.753Z,8.63
2019-04-22T12:36:54.362Z,13.68
2019-04-22T12:39:21.385Z,10.02
2019-04-22T12:41:50.047Z,11.48
2019-04-22T12:44:18.035Z,12.63
2019-04-22T12:46:46.232Z,11.27
2019-04-22T12:49:14.318Z,8.65
2019-04-22T12:51:42.951Z,12.23
2019-04-22T12:54:11.154Z,9.15
2019-04-22T12:56:39.513Z,10.50
2019-04-22T12:59:07.646Z,9.00
2019-04-22T13:01:35.485Z,11.52
2019-04-22T13:04:09.103Z,10.02
2019-04-22T13:06:32.131Z,8.75
2019-04-22T13:09:00.308Z,8.70
2019-04-22T13:11:30.924Z,10.63
2019-04-22T13:13:56.763Z,7.30
2019-04-22T13:16:24.994Z,11.98
2019-04-22T13:18:56.524Z,10.55
2019-04-22T13:21:20.528Z,10.25
2019-04-22T13:23:48.893Z,6.65
2019-04-22T13:26:16.960Z,9.18
2019-04-22T13:28:45.084Z,7.68
2019-04-22T13:31:13.838Z,8.48
2019-04-22T13:33:41.313Z,7.65
2019-04-22T13:36:10.117Z,7.82
2019-04-22T13:38:38.722Z,8.55
2019-04-22T13:41:21.227Z,7.57
2019-04-22T13:43:36.609Z,6.43
2019-04-22T13:46:03.876Z,12.63
2019-04-22T13:48:53.310Z,7.00
2019-04-22T13:51:32.608Z,9.13
2019-04-22T13:54:42.291Z,9.25
2019-04-22T13:56:19.111Z,9.23
2019-04-22T13:58:40.907Z,10.55
2019-04-22T14:00:54.408Z,9.65
2019-04-22T14:03:48.859Z,6.00
2019-04-22T14:06:16.461Z,7.43
2019-04-22T14:08:45.091Z,9.40
2019-04-22T14:11:23.610Z,5.93
2019-04-22T14:13:40.055Z,8.45
2019-04-22T14:16:09.051Z,9.60
2019-04-22T14:18:37.032Z,6.55
2019-04-22T14:21:05.094Z,5.50
2019-04-22T14:23:33.000Z,6.40
2019-04-22T14:26:01.302Z,6.15
2019-04-22T14:28:29.280Z,9.57
2019-04-22T14:30:56.979Z,8.45
2019-04-22T14:33:24.617Z,6.40
2019-04-22T14:35:52.503Z,10.25
2019-04-22T14:38:21.867Z,6.62
2019-04-22T14:40:49.914Z,8.25
2019-04-22T14:43:37.457Z,6.68
2019-04-22T14:46:15.491Z,7.00
2019-04-22T14:48:42.132Z,6.35
2019-04-22T14:51:06.325Z,6.05
2019-04-22T14:53:30.865Z,7.55
2019-04-22T14:55:38.596Z,7.30
2019-04-22T14:58:06.898Z,6.12
2019-04-22T15:00:35.838Z,7.32
2019-04-22T15:03:03.862Z,7.70
2019-04-22T15:05:32.108Z,8.10
2019-04-22T15:07:59.228Z,7.72
2019-04-22T15:10:28.232Z,6.90
2019-04-22T15:12:58.773Z,8.48
2019-04-22T15:15:49.300Z,7.60
2019-04-22T15:18:26.214Z,10.32
2019-04-22T15:21:00.770Z,7.00
2019-04-22T15:23:28.700Z,8.00
2019-04-22T15:25:56.898Z,6.00
2019-04-22T15:28:24.702Z,7.15
2019-04-22T15:30:53.322Z,7.22
2019-04-22T15:33:21.450Z,10.70
2019-04-22T15:35:49.531Z,10.98
2019-04-22T15:38:17.407Z,6.55
2019-04-22T15:40:46.856Z,7.53
2019-04-22T15:43:14.839Z,7.97
2019-04-22T15:45:43.206Z,6.62
2019-04-22T15:48:10.228Z,6.72
2019-04-22T15:50:37.988Z,11.00
2019-04-22T15:53:07.629Z,8.52
2019-04-22T15:55:34.569Z,5.12
2019-04-22T15:58:03.753Z,7.62
2019-04-22T16:00:41.571Z,5.18
2019-04-22T16:02:59.634Z,5.77
2019-04-22T16:05:27.974Z,6.40
2019-04-22T16:07:55.024Z,8.52
2019-04-22T16:10:23.946Z,9.40
2019-04-22T16:12:57.601Z,8.35
2019-04-22T16:15:20.321Z,8.00
2019-04-22T16:17:48.719Z,4.45
2019-04-22T16:20:15.367Z,5.78
2019-04-22T16:23:03.373Z,6.62
2019-04-22T16:26:07.664Z,6.22
2019-04-22T16:28:35.522Z,8.27
2019-04-22T16:31:03.901Z,5.20
2019-04-22T16:33:34.569Z,4.78
2019-04-22T16:36:00.571Z,6.85
2019-04-22T16:38:28.924Z,3.85
2019-04-22T16:40:56.832Z,3.92
2019-04-22T16:43:24.913Z,6.70
2019-04-22T16:45:53.853Z,5.43
2019-04-22T16:48:21.968Z,4.62
2019-04-22T16:50:51.152Z,5.43
2019-04-22T16:53:18.999Z,4.40
2019-04-22T16:55:46.627Z,4.40
2019-04-22T16:58:14.771Z,6.37
2019-04-22T17:00:42.783Z,4.10
2019-04-22T17:03:22.572Z,5.55
2019-04-22T17:06:07.917Z,4.40
2019-04-22T17:08:36.892Z,3.53
2019-04-22T17:11:04.202Z,5.37
2019-04-22T17:13:33.970Z,6.60
2019-04-22T17:16:02.155Z,8.65
2019-04-22T17:18:28.050Z,4.97
2019-04-22T17:20:55.909Z,5.75
2019-04-22T17:23:25.509Z,6.65
2019-04-22T17:25:52.584Z,5.32
2019-04-22T17:28:21.583Z,4.43
2019-04-22T17:30:49.772Z,4.40
2019-04-22T17:33:16.964Z,3.42
2019-04-22T17:35:46.688Z,4.53
2019-04-22T17:38:24.801Z,8.43
2019-04-22T17:40:56.824Z,5.53
2019-04-22T17:43:44.178Z,3.42
2019-04-22T17:46:03.102Z,3.67
2019-04-22T17:48:49.302Z,7.82
2019-04-22T17:51:22.356Z,3.67
2019-04-22T17:53:46.715Z,3.40
2019-04-22T17:56:08.613Z,3.30
2019-04-22T17:58:42.005Z,3.60
2019-04-22T18:01:03.644Z,3.85
2019-04-22T18:03:21.278Z,3.62
2019-04-22T18:05:48.024Z,3.60
2019-04-22T18:08:31.666Z,3.60
2019-04-22T18:10:59.836Z,3.25
2019-04-22T18:13:36.212Z,4.93
2019-04-22T18:15:54.743Z,3.12
2019-04-22T18:18:24.020Z,4.43
2019-04-22T18:20:44.595Z,5.82
2019-04-22T18:23:06.726Z,5.28
2019-04-22T18:25:44.970Z,4.25
2019-04-22T18:28:22.229Z,3.60
2019-04-22T18:30:34.725Z,3.50
2019-04-22T18:33:07.119Z,5.35
2019-04-22T18:35:34.543Z,3.87
2019-04-22T18:38:11.898Z,2.85
2019-04-22T18:40:30.996Z,3.95
2019-04-22T18:43:03.680Z,4.45
2019-04-22T18:45:39.661Z,2.47
2019-04-22T18:47:50.478Z,5.30
2019-04-22T18:50:33.987Z,3.12
2019-04-22T18:53:07.064Z,3.25
2019-04-22T18:55:38.793Z,3.55
2019-04-22T18:58:08.515Z,3.83
2019-04-22T19:00:23.477Z,3.28
2019-04-22T19:02:56.818Z,5.78
2019-04-22T19:05:30.603Z,4.40
2019-04-22T19:08:13.699Z,3.42
2019-04-22T19:10:44.750Z,3.08
2019-04-22T19:13:34.844Z,3.45
2019-04-22T19:15:38.458Z,3.50
2019-04-22T19:18:12.728Z,2.20
2019-04-22T19:20:37.456Z,4.12
2019-04-22T19:22:57.507Z,3.20
2019-04-22T19:25:17.489Z,3.75
2019-04-22T19:27:53.165Z,3.33
2019-04-22T19:30:24.023Z,3.78
2019-04-22T19:32:51.529Z,5.05
2019-04-22T19:35:21.339Z,2.75
2019-04-22T19:37:41.320Z,3.62
2019-04-22T19:40:15.716Z,2.65
2019-04-22T19:42:52.635Z,3.35
2019-04-22T19:45:13.323Z,3.90
2019-04-22T19:47:43.486Z,7.22
2019-04-22T19:50:14.555Z,3.40
2019-04-22T19:52:41.410Z,2.40
2019-04-22T19:55:07.659Z,3.53
2019-04-22T19:57:27.737Z,5.25
2019-04-22T19:59:56.248Z,4.07
2019-04-22T20:03:13.297Z,6.97
2019-04-22T20:05:43.318Z,3.25
2019-04-22T20:08:11.120Z,6.15
2019-04-22T20:10:40.211Z,3.65
2019-04-22T20:13:05.099Z,2.22
2019-04-22T20:15:26.744Z,3.30
2019-04-22T20:18:22.169Z,5.87
2019-04-22T20:20:34.379Z,4.03
2019-04-22T20:22:57.107Z,5.75
2019-04-22T20:25:16.707Z,2.65
2019-04-22T20:27:57.765Z,4.03
2019-04-22T20:30:23.724Z,9.05
2019-04-22T20:32:44.603Z,3.70
2019-04-22T20:35:20.856Z,3.67
2019-04-22T20:37:48.173Z,4.07
2019-04-22T20:40:16.868Z,5.15
2019-04-22T20:42:51.527Z,2.75
2019-04-22T20:45:13.136Z,3.08
2019-04-22T20:47:32.266Z,3.53
2019-04-22T20:50:09.813Z,3.47
2019-04-22T20:52:38.680Z,4.35
2019-04-22T20:55:01.456Z,3.22
2019-04-22T20:57:34.701Z,3.35
2019-04-22T20:59:55.941Z,2.80
2019-04-22T21:02:25.116Z,4.87
2019-04-22T21:04:46.227Z,3.40
2019-04-22T21:07:20.101Z,2.90
2019-04-22T21:09:49.307Z,3.87
2019-04-22T21:12:13.828Z,2.70
2019-04-22T21:14:51.468Z,5.82
2019-04-22T21:17:17.331Z,5.18
2019-04-22T21:19:54.387Z,4.12
2019-04-22T21:22:16.476Z,4.90
2019-04-22T21:24:41.521Z,3.25
2019-04-22T21:27:16.810Z,5.32
2019-04-22T21:29:33.395Z,5.28
2019-04-22T21:32:09.047Z,2.75
2019-04-22T21:34:41.322Z,2.67
2019-04-22T21:37:07.531Z,3.78
2019-04-22T21:39:26.332Z,3.30
2019-04-22T21:41:58.734Z,3.85
2019-04-22T21:44:26.631Z,3.75
2019-04-22T21:47:08.670Z,3.62
2019-04-22T21:49:24.748Z,2.65
2019-04-22T21:51:53.827Z,7.00
2019-04-22T21:54:45.479Z,6.47
2019-04-22T21:57:19.242Z,5.37
2019-04-22T21:59:34.266Z,2.25
2019-04-22T22:02:12.371Z,6.07
2019-04-22T22:04:36.073Z,4.78
2019-04-22T22:06:57.148Z,5.40
2019-04-22T22:09:34.599Z,5.35
2019-04-22T22:11:57.786Z,4.45
2019-04-22T22:14:27.666Z,3.42
2019-04-22T22:16:50.472Z,2.45
2019-04-22T22:19:24.030Z,3.47
2019-04-22T22:21:56.993Z,4.65
2019-04-22T22:24:25.557Z,7.10
2019-04-22T22:26:50.881Z,2.20
2019-04-22T22:29:32.152Z,6.37
2019-04-22T22:31:56.483Z,6.35
2019-04-22T22:34:16.695Z,3.47
2019-04-22T22:36:36.447Z,3.12
2019-04-22T22:39:05.642Z,1.98
2019-04-22T22:41:18.413Z,4.28
2019-04-22T22:43:50.521Z,4.60
2019-04-22T22:46:28.391Z,2.70
2019-04-22T22:49:04.814Z,3.75
2019-04-22T22:51:43.123Z,4.45
2019-04-22T22:54:01.154Z,3.78
2019-04-22T22:56:41.021Z,2.28
2019-04-22T22:59:01.856Z,1.87
2019-04-22T23:01:23.412Z,4.40
2019-04-22T23:03:56.019Z,3.20
2019-04-22T23:06:26.123Z,2.58
2019-04-22T23:08:52.476Z,2.83
2019-04-22T23:11:20.577Z,2.53
2019-04-22T23:13:42.747Z,2.53
2019-04-22T23:16:04.193Z,3.05
2019-04-22T23:18:19.847Z,2.45
2019-04-22T23:20:49.765Z,2.70
2019-04-22T23:26:17.737Z,2.35
2019-04-22T23:28:34.876Z,4.07
2019-04-22T23:31:23.609Z,4.03
2019-04-22T23:34:06.703Z,5.93
2019-04-22T23:36:54.247Z,4.35
2019-04-22T23:39:22.702Z,3.05
2019-04-22T23:41:58.587Z,2.47
2019-04-22T23:44:36.704Z,3.95
2019-04-22T23:47:07.221Z,4.15
2019-04-22T23:49:32.252Z,5.55
2019-04-22T23:52:08.858Z,5.22
2019-04-22T23:54:40.219Z,3.47
2019-04-22T23:57:00.245Z,2.67
2019-04-22T23:59:46.612Z,4.55
